Terminal Aerodrome Forecast
Issued by NWS Grand Forks, ND

Home | Current Version | Previous Version | Graphics & Text | Print | Product List | Glossary On
Versions: 1 2 3 4 5 6 7 8 9 10 11 12 13
000
FTUS43 KFGF 182000 AAA
TAFGFK
TAF AMD
KGFK 182055Z 1821/1918 19013KT P6SM OVC013
     FM190000 18011KT P6SM SCT020 BKN200
     FM191600 27011KT P6SM SCT250=

USA.gov is the U.S. government's official web portal to all federal, state and local government web resources and services.